AKDT,Max TemperatureF,Mean TemperatureF,Min TemperatureF,Max Dew PointF,MeanDew PointF,Min DewpointF,Max Humidity, Mean Humidity, Min Humidity, Max Sea Level PressureIn, Mean Sea Level PressureIn, Min Sea Level PressureIn, Max VisibilityMiles, Mean VisibilityMiles, Min VisibilityMiles, Max Wind SpeedMPH, Mean Wind SpeedMPH, Max Gust SpeedMPH,PrecipitationIn, CloudCover, Events, WindDirDegrees
2012-8-1,62,56,51,52,49,46,88,79,68,30.21,30.10,29.99,10,10,10,13,7,,0.00,7,,332
2012-8-2,57,55,53,52,51,48,94,89,77,30.30,30.26,30.21,10,8,2,8,1,,0.00,8,,308
2012-8-3,57,55,53,55,53,50,94,92,88,30.24,30.19,30.14,8,3,1,8,2,,0.00,8,Rain,264
2012-8-4,62,56,51,54,52,50,94,86,72,30.16,30.12,30.04,10,7,0,6,1,,0.00,7,,321
2012-8-5,57,54,51,54,52,48,94,91,88,30.07,30.04,30.02,10,6,0,8,2,,0.00,8,,312
2012-8-6,66,60,53,55,54,52,94,83,68,30.11,30.08,30.04,10,10,10,7,3,,0.00,6,,98
2012-8-7,62,58,53,57,53,48,94,85,77,30.05,30.00,29.94,10,10,10,9,2,,0.00,6,,135
2012-8-8,60,56,53,55,53,48,94,86,72,30.15,29.96,29.91,10,10,5,16,2,24,0.00,8,,142
2012-8-9,55,53,51,52,49,48,94,87,77,30.26,30.23,30.15,10,9,5,10,4,,0.00,8,,106
2012-8-10,57,54,51,52,50,48,88,85,82,30.25,30.21,30.17,10,10,10,9,4,,0.00,8,,108
2012-8-11,59,56,53,54,52,50,94,90,82,30.18,30.14,30.12,10,10,4,10,4,,0.00,8,,100
2012-8-12,57,54,51,54,52,48,94,92,88,30.15,30.12,30.09,10,6,1,7,3,,0.00,8,,258
2012-8-13,53,52,48,52,49,46,94,89,82,30.09,29.99,29.94,10,7,0,10,3,,0.00,7,,301
2012-8-14,62,55,48,54,50,46,94,83,68,30.22,30.17,30.06,10,10,7,7,3,,0.00,3,,339
2012-8-15,69,60,51,55,51,48,94,76,52,30.22,30.17,30.12,10,7,0,7,3,,0.00,2,,300
2012-8-16,68,60,51,54,50,46,88,74,56,30.15,30.10,30.04,10,10,7,9,3,,0.00,0,,277
2012-8-17,59,55,51,55,51,48,94,87,77,30.04,29.98,29.93,10,9,2,7,2,,0.00,5,,178
2012-8-18,60,56,53,55,53,52,94,90,77,30.01,29.98,29.94,10,6,0,7,2,,0.00,8,,298
2012-8-19,64,58,51,55,53,50,94,87,73,30.04,30.01,29.99,10,8,0,8,3,,0.00,5,,315
2012-8-20,59,55,51,54,51,48,94,87,82,30.05,30.04,30.02,10,10,2,7,1,,0.00,7,,298
2012-8-21,55,53,51,52,51,48,94,90,82,30.03,29.99,29.97,10,8,2,6,1,,0.00,8,,77
2012-8-22,55,53,51,52,50,48,94,89,82,30.01,29.99,29.96,10,7,1,7,2,,0.00,8,,315
2012-8-23,53,52,51,52,50,48,94,90,88,30.07,30.02,30.01,10,7,0,7,1,,0.00,8,,116
2012-8-24,57,54,51,52,49,46,94,83,72,30.10,30.09,30.07,10,10,5,9,4,,0.00,8,,114
2012-8-25,60,56,51,50,48,46,88,79,59,30.09,30.00,29.94,10,10,10,14,4,,0.00,7,,315
2012-8-26,64,56,48,52,48,46,93,76,56,29.94,29.87,29.84,10,10,10,14,5,17,0.00,2,,316
2012-8-27,66,56,46,54,49,45,94,82,64,29.94,29.89,29.85,10,9,0,15,4,20,0.00,4,Fog,140
2012-8-28,55,53,51,52,51,48,94,90,82,29.92,29.84,29.80,10,8,3,8,3,,0.00,8,,264
2012-8-29,60,54,48,52,48,45,94,82,63,30.02,29.91,29.80,10,9,0,9,3,,0.00,5,Fog,277
2012-8-30,64,55,46,52,47,43,94,83,56,30.07,30.05,30.02,10,7,0,7,3,,0.00,2,,108
2012-8-31,62,54,46,48,44,37,93,73,39,30.07,30.04,30.00,10,10,7,9,4,,0.00,1,,191